sensor_id;sensor_type;location;lat;lon;timestamp;pressure;altitude;pressure_sealevel;temperature;humidity
14067;BME280;7108;42.684;23.350;2022-11-25T00:01:11;95089.09;;;6.40;100.00
14067;BME280;7108;42.684;23.350;2022-11-25T00:03:37;95107.81;;;6.51;100.00
14067;BME280;7108;42.684;23.350;2022-11-25T00:06:26;95111.94;;;6.49;100.00
14067;BME280;7108;42.684;23.350;2022-11-25T00:09:07;95098.56;;;6.37;100.00
14067;BME280;7108;42.684;23.350;2022-11-25T00:11:35;95128.56;;;6.43;100.00
14067;BME280;7108;42.684;23.350;2022-11-25T00:14:00;95146.63;;;6.34;100.00
14067;BME280;7108;42.684;23.350;2022-11-25T00:16:26;95089.28;;;6.11;100.00
14067;BME280;7108;42.684;23.350;2022-11-25T00:18:53;95136.13;;;6.41;100.00
14067;BME280;7108;42.684;23.350;2022-11-25T00:21:22;95134.69;;;6.43;100.00
14067;BME280;7108;42.684;23.350;2022-11-25T00:23:59;95143.59;;;6.35;100.00
14067;BME280;7108;42.684;23.350;2022-11-25T00:26:25;95119.38;;;6.20;100.00
14067;BME280;7108;42.684;23.350;2022-11-25T00:28:52;95097.75;;;6.13;100.00
14067;BME280;7108;42.684;23.350;2022-11-25T00:31:23;95137.69;;;6.42;100.00
14067;BME280;7108;42.684;23.350;2022-11-25T00:33:50;95104.44;;;6.07;100.00
14067;BME280;7108;42.684;23.350;2022-11-25T00:36:19;95142.69;;;6.43;100.00
14067;BME280;7108;42.684;23.350;2022-11-25T00:38:45;95134.69;;;6.31;100.00
14067;BME280;7108;42.684;23.350;2022-11-25T00:41:10;95118.84;;;6.26;100.00
14067;BME280;7108;42.684;23.350;2022-11-25T00:43:55;95140.81;;;6.32;100.00
14067;BME280;7108;42.684;23.350;2022-11-25T00:46:39;95094.72;;;6.02;100.00
14067;BME280;7108;42.684;23.350;2022-11-25T00:49:05;95105.22;;;6.19;100.00
14067;BME280;7108;42.684;23.350;2022-11-25T00:51:30;95144.06;;;6.37;100.00
14067;BME280;7108;42.684;23.350;2022-11-25T00:53:56;95139.69;;;6.33;100.00
14067;BME280;7108;42.684;23.350;2022-11-25T00:56:21;95084.91;;;5.94;100.00
14067;BME280;7108;42.684;23.350;2022-11-25T00:58:48;95142.91;;;6.38;100.00
14067;BME280;7108;42.684;23.350;2022-11-25T01:01:13;95164.31;;;6.38;100.00
14067;BME280;7108;42.684;23.350;2022-11-25T01:03:39;95121.28;;;6.19;100.00
14067;BME280;7108;42.684;23.350;2022-11-25T01:06:09;95118.84;;;6.26;100.00
14067;BME280;7108;42.684;23.350;2022-11-25T01:08:36;95153.63;;;6.38;100.00
14067;BME280;7108;42.684;23.350;2022-11-25T01:11:08;95149.84;;;6.39;100.00
14067;BME280;7108;42.684;23.350;2022-11-25T01:13:34;95143.50;;;6.44;100.00
14067;BME280;7108;42.684;23.350;2022-11-25T01:16:01;95137.69;;;6.42;100.00
14067;BME280;7108;42.684;23.350;2022-11-25T01:18:27;95100.66;;;6.08;100.00
14067;BME280;7108;42.684;23.350;2022-11-25T01:20:53;95145.84;;;6.45;100.00
14067;BME280;7108;42.684;23.350;2022-11-25T01:23:18;95129.88;;;6.37;100.00
14067;BME280;7108;42.684;23.350;2022-11-25T01:25:44;95128.09;;;6.29;100.00
14067;BME280;7108;42.684;23.350;2022-11-25T01:28:09;95133.88;;;6.31;100.00
14067;BME280;7108;42.684;23.350;2022-11-25T01:30:35;95087.94;;;6.17;100.00
14067;BME280;7108;42.684;23.350;2022-11-25T01:33:00;95079.13;;;6.04;100.00
14067;BME280;7108;42.684;23.350;2022-11-25T01:35:25;95144.16;;;6.52;100.00
14067;BME280;7108;42.684;23.350;2022-11-25T01:37:51;95119.19;;;6.37;100.00
14067;BME280;7108;42.684;23.350;2022-11-25T01:40:16;95133.81;;;6.51;100.00
14067;BME280;7108;42.684;23.350;2022-11-25T01:42:46;95049.69;;;5.92;100.00
14067;BME280;7108;42.684;23.350;2022-11-25T01:47:46;95074.56;;;6.17;100.00
14067;BME280;7108;42.684;23.350;2022-11-25T01:50:12;95056.75;;;6.09;100.00
14067;BME280;7108;42.684;23.350;2022-11-25T01:52:45;95072.56;;;6.26;100.00
14067;BME280;7108;42.684;23.350;2022-11-25T01:55:19;95113.50;;;6.62;100.00
14067;BME280;7108;42.684;23.350;2022-11-25T01:57:49;95118.88;;;6.62;100.00
14067;BME280;7108;42.684;23.350;2022-11-25T02:00:18;95116.75;;;6.55;100.00
14067;BME280;7108;42.684;23.350;2022-11-25T02:02:45;95100.91;;;6.51;100.00
14067;BME280;7108;42.684;23.350;2022-11-25T02:05:15;95111.59;;;6.62;100.00
14067;BME280;7108;42.684;23.350;2022-11-25T02:07:43;95123.97;;;6.55;100.00
14067;BME280;7108;42.684;23.350;2022-11-25T02:10:12;95118.19;;;6.41;100.00
14067;BME280;7108;42.684;23.350;2022-11-25T02:12:40;95116.41;;;6.45;100.00
14067;BME280;7108;42.684;23.350;2022-11-25T02:15:08;95116.75;;;6.55;100.00
14067;BME280;7108;42.684;23.350;2022-11-25T02:17:33;95097.00;;;6.36;100.00
14067;BME280;7108;42.684;23.350;2022-11-25T02:28:14;95121.41;;;6.47;100.00
14067;BME280;7108;42.684;23.350;2022-11-25T02:30:40;95134.47;;;6.60;100.00
14067;BME280;7108;42.684;23.350;2022-11-25T02:33:06;95090.06;;;6.23;100.00
14067;BME280;7108;42.684;23.350;2022-11-25T02:35:32;95141.38;;;6.61;100.00
14067;BME280;7108;42.684;23.350;2022-11-25T02:38:08;95121.50;;;6.38;100.00
14067;BME280;7108;42.684;23.350;2022-11-25T02:40:39;95117.84;;;6.43;100.00
14067;BME280;7108;42.684;23.350;2022-11-25T02:43:06;95087.84;;;6.25;100.00
14067;BME280;7108;42.684;23.350;2022-11-25T02:45:54;95145.16;;;6.60;100.00
14067;BME280;7108;42.684;23.350;2022-11-25T02:48:20;95138.72;;;6.61;100.00
14067;BME280;7108;42.684;23.350;2022-11-25T02:50:46;95143.41;;;6.52;100.00
14067;BME280;7108;42.684;23.350;2022-11-25T02:53:12;95114.84;;;6.32;100.00
14067;BME280;7108;42.684;23.350;2022-11-25T02:55:37;95133.34;;;6.49;100.00
14067;BME280;7108;42.684;23.350;2022-11-25T02:58:06;95115.06;;;6.27;100.00
14067;BME280;7108;42.684;23.350;2022-11-25T03:00:31;95146.28;;;6.35;100.00
14067;BME280;7108;42.684;23.350;2022-11-25T03:02:57;95137.59;;;6.50;100.00
14067;BME280;7108;42.684;23.350;2022-11-25T03:05:23;95127.31;;;6.28;100.00
14067;BME280;7108;42.684;23.350;2022-11-25T03:07:48;95121.97;;;6.40;100.00
14067;BME280;7108;42.684;23.350;2022-11-25T03:10:13;95114.50;;;6.34;100.00
14067;BME280;7108;42.684;23.350;2022-11-25T03:12:39;95125.75;;;6.27;100.00
14067;BME280;7108;42.684;23.350;2022-11-25T03:15:05;95131.88;;;6.28;100.00
14067;BME280;7108;42.684;23.350;2022-11-25T03:17:31;95104.69;;;6.14;100.00
14067;BME280;7108;42.684;23.350;2022-11-25T03:19:56;95113.38;;;6.23;100.00
14067;BME280;7108;42.684;23.350;2022-11-25T03:22:22;95167.38;;;6.49;100.00
14067;BME280;7108;42.684;23.350;2022-11-25T03:24:47;95142.81;;;6.35;100.00
14067;BME280;7108;42.684;23.350;2022-11-25T03:27:12;95161.22;;;6.36;100.00
14067;BME280;7108;42.684;23.350;2022-11-25T03:29:38;95165.56;;;6.41;100.00
14067;BME280;7108;42.684;23.350;2022-11-25T03:32:04;95078.69;;;5.70;100.00
14067;BME280;7108;42.684;23.350;2022-11-25T03:34:29;95136.53;;;6.07;100.00
14067;BME280;7108;42.684;23.350;2022-11-25T03:36:54;95160.72;;;6.22;100.00
14067;BME280;7108;42.684;23.350;2022-11-25T03:39:20;95152.03;;;6.13;100.00
14067;BME280;7108;42.684;23.350;2022-11-25T03:41:45;95187.09;;;6.32;100.00
14067;BME280;7108;42.684;23.350;2022-11-25T03:44:11;95152.22;;;6.08;100.00
14067;BME280;7108;42.684;23.350;2022-11-25T03:46:36;95145.66;;;6.06;100.00
14067;BME280;7108;42.684;23.350;2022-11-25T03:49:02;95157.84;;;6.15;100.00
14067;BME280;7108;42.684;23.350;2022-11-25T03:51:28;95146.53;;;5.98;100.00
14067;BME280;7108;42.684;23.350;2022-11-25T03:53:53;95146.97;;;6.00;100.00
14067;BME280;7108;42.684;23.350;2022-11-25T03:56:19;95149.63;;;5.88;100.00
14067;BME280;7108;42.684;23.350;2022-11-25T03:58:44;95184.00;;;6.10;100.00
14067;BME280;7108;42.684;23.350;2022-11-25T04:01:10;95194.81;;;6.13;100.00
14067;BME280;7108;42.684;23.350;2022-11-25T04:03:35;95155.19;;;5.83;100.00
14067;BME280;7108;42.684;23.350;2022-11-25T04:06:01;95214.00;;;6.15;100.00
14067;BME280;7108;42.684;23.350;2022-11-25T04:08:26;95198.88;;;5.99;100.00
14067;BME280;7108;42.684;23.350;2022-11-25T04:10:52;95210.44;;;6.11;100.00
14067;BME280;7108;42.684;23.350;2022-11-25T04:13:17;95222.56;;;6.09;100.00
14067;BME280;7108;42.684;23.350;2022-11-25T04:15:45;95210.63;;;6.06;100.00
14067;BME280;7108;42.684;23.350;2022-11-25T04:18:14;95219.31;;;6.03;100.00
14067;BME280;7108;42.684;23.350;2022-11-25T04:20:41;95209.41;;;6.04;100.00
14067;BME280;7108;42.684;23.350;2022-11-25T04:23:07;95196.94;;;5.87;100.00
14067;BME280;7108;42.684;23.350;2022-11-25T04:25:33;95210.59;;;5.94;100.00
14067;BME280;7108;42.684;23.350;2022-11-25T04:28:00;95198.38;;;5.85;100.00
14067;BME280;7108;42.684;23.350;2022-11-25T04:30:26;95205.50;;;5.81;100.00
14067;BME280;7108;42.684;23.350;2022-11-25T04:32:52;95207.22;;;5.86;100.00
14067;BME280;7108;42.684;23.350;2022-11-25T04:35:17;95219.00;;;5.85;100.00
14067;BME280;7108;42.684;23.350;2022-11-25T04:37:43;95236.31;;;5.99;100.00
14067;BME280;7108;42.684;23.350;2022-11-25T04:40:08;95206.84;;;5.67;100.00
14067;BME280;7108;42.684;23.350;2022-11-25T04:42:34;95229.44;;;5.78;100.00
14067;BME280;7108;42.684;23.350;2022-11-25T04:45:04;95182.56;;;5.39;100.00
14067;BME280;7108;42.684;23.350;2022-11-25T04:47:30;95241.50;;;5.84;100.00
14067;BME280;7108;42.684;23.350;2022-11-25T04:49:56;95196.22;;;5.58;100.00
14067;BME280;7108;42.684;23.350;2022-11-25T04:52:22;95217.53;;;5.67;100.00
14067;BME280;7108;42.684;23.350;2022-11-25T04:54:47;95214.44;;;5.65;100.00
14067;BME280;7108;42.684;23.350;2022-11-25T04:57:14;95250.50;;;5.79;100.00
14067;BME280;7108;42.684;23.350;2022-11-25T04:59:41;95271.69;;;5.84;100.00
14067;BME280;7108;42.684;23.350;2022-11-25T05:04:37;95243.94;;;5.68;100.00
14067;BME280;7108;42.684;23.350;2022-11-25T05:07:02;95258.72;;;5.66;100.00
14067;BME280;7108;42.684;23.350;2022-11-25T05:09:28;95238.00;;;5.63;100.00
14067;BME280;7108;42.684;23.350;2022-11-25T05:11:53;95280.69;;;5.80;100.00
14067;BME280;7108;42.684;23.350;2022-11-25T05:14:22;95278.78;;;5.80;100.00
14067;BME280;7108;42.684;23.350;2022-11-25T05:16:49;95270.63;;;5.77;100.00
14067;BME280;7108;42.684;23.350;2022-11-25T05:19:15;95292.31;;;6.04;100.00
14067;BME280;7108;42.684;23.350;2022-11-25T05:21:40;95267.66;;;5.78;100.00
14067;BME280;7108;42.684;23.350;2022-11-25T05:24:06;95259.47;;;5.75;100.00
14067;BME280;7108;42.684;23.350;2022-11-25T05:26:31;95324.06;;;6.05;100.00
14067;BME280;7108;42.684;23.350;2022-11-25T05:28:57;95296.72;;;6.00;100.00
14067;BME280;7108;42.684;23.350;2022-11-25T05:31:22;95315.25;;;6.05;100.00
14067;BME280;7108;42.684;23.350;2022-11-25T05:33:48;95284.94;;;5.81;100.00
14067;BME280;7108;42.684;23.350;2022-11-25T05:36:13;95287.72;;;5.84;100.00
14067;BME280;7108;42.684;23.350;2022-11-25T05:38:39;95334.22;;;6.12;100.00
14067;BME280;7108;42.684;23.350;2022-11-25T05:41:06;95324.50;;;6.07;100.00
14067;BME280;7108;42.684;23.350;2022-11-25T05:43:32;95319.94;;;6.08;100.00
14067;BME280;7108;42.684;23.350;2022-11-25T05:45:58;95332.72;;;6.02;100.00
14067;BME280;7108;42.684;23.350;2022-11-25T05:48:24;95317.34;;;5.99;100.00
14067;BME280;7108;42.684;23.350;2022-11-25T05:50:49;95341.28;;;6.16;100.00
14067;BME280;7108;42.684;23.350;2022-11-25T05:53:14;95335.94;;;6.16;100.00
14067;BME280;7108;42.684;23.350;2022-11-25T05:55:43;95346.44;;;6.21;100.00
14067;BME280;7108;42.684;23.350;2022-11-25T05:58:08;95300.59;;;5.90;100.00
14067;BME280;7108;42.684;23.350;2022-11-25T06:00:34;95359.75;;;6.30;100.00
14067;BME280;7108;42.684;23.350;2022-11-25T06:03:00;95363.88;;;6.27;100.00
14067;BME280;7108;42.684;23.350;2022-11-25T06:05:25;95339.66;;;6.24;100.00
14067;BME280;7108;42.684;23.350;2022-11-25T06:07:51;95342.31;;;6.24;100.00
14067;BME280;7108;42.684;23.350;2022-11-25T06:10:17;95361.69;;;6.41;100.00
14067;BME280;7108;42.684;23.350;2022-11-25T06:12:42;95359.56;;;6.35;100.00
14067;BME280;7108;42.684;23.350;2022-11-25T06:15:09;95382.09;;;6.46;100.00
14067;BME280;7108;42.684;23.350;2022-11-25T06:17:34;95346.69;;;6.28;100.00
14067;BME280;7108;42.684;23.350;2022-11-25T06:20:00;95336.25;;;6.15;100.00
14067;BME280;7108;42.684;23.350;2022-11-25T06:22:25;95326.34;;;6.15;100.00
14067;BME280;7108;42.684;23.350;2022-11-25T06:24:51;95365.41;;;6.49;100.00
14067;BME280;7108;42.684;23.350;2022-11-25T06:27:17;95370.81;;;6.40;100.00
14067;BME280;7108;42.684;23.350;2022-11-25T06:29:43;95362.09;;;6.31;100.00
14067;BME280;7108;42.684;23.350;2022-11-25T06:32:08;95358.41;;;6.36;100.00
14067;BME280;7108;42.684;23.350;2022-11-25T06:34:34;95382.28;;;6.41;100.00
14067;BME280;7108;42.684;23.350;2022-11-25T06:37:00;95378.31;;;6.47;100.00
14067;BME280;7108;42.684;23.350;2022-11-25T06:39:26;95354.91;;;6.23;100.00
14067;BME280;7108;42.684;23.350;2022-11-25T06:41:51;95316.94;;;5.89;100.00
14067;BME280;7108;42.684;23.350;2022-11-25T06:44:16;95339.63;;;6.03;100.00
14067;BME280;7108;42.684;23.350;2022-11-25T06:46:42;95397.66;;;6.32;100.00
14067;BME280;7108;42.684;23.350;2022-11-25T06:49:07;95407.81;;;6.38;100.00
14067;BME280;7108;42.684;23.350;2022-11-25T06:51:33;95419.97;;;6.56;100.00
14067;BME280;7108;42.684;23.350;2022-11-25T06:53:58;95368.94;;;6.20;100.00
14067;BME280;7108;42.684;23.350;2022-11-25T06:56:26;95420.16;;;6.51;100.00
14067;BME280;7108;42.684;23.350;2022-11-25T06:58:52;95445.88;;;6.64;100.00
14067;BME280;7108;42.684;23.350;2022-11-25T07:01:23;95432.63;;;6.67;100.00
14067;BME280;7108;42.684;23.350;2022-11-25T07:03:55;95433.69;;;6.54;100.00
14067;BME280;7108;42.684;23.350;2022-11-25T07:06:23;95443.94;;;6.52;100.00
14067;BME280;7108;42.684;23.350;2022-11-25T07:08:49;95450.47;;;6.63;100.00
14067;BME280;7108;42.684;23.350;2022-11-25T07:13:45;95427.59;;;6.66;100.00
14067;BME280;7108;42.684;23.350;2022-11-25T07:16:12;95449.94;;;6.70;100.00
14067;BME280;7108;42.684;23.350;2022-11-25T07:18:38;95451.56;;;6.83;100.00
14067;BME280;7108;42.684;23.350;2022-11-25T07:21:08;95445.53;;;6.86;100.00
14067;BME280;7108;42.684;23.350;2022-11-25T07:23:34;95443.94;;;6.73;100.00
14067;BME280;7108;42.684;23.350;2022-11-25T07:26:02;95409.78;;;6.50;100.00
14067;BME280;7108;42.684;23.350;2022-11-25T07:28:30;95422.84;;;6.51;100.00
14067;BME280;7108;42.684;23.350;2022-11-25T07:31:13;95439.22;;;6.70;100.00
14067;BME280;7108;42.684;23.350;2022-11-25T07:33:39;95434.19;;;6.68;100.00
14067;BME280;7108;42.684;23.350;2022-11-25T07:36:06;95416.00;;;6.62;100.00
14067;BME280;7108;42.684;23.350;2022-11-25T07:38:32;95442.22;;;6.89;100.00
14067;BME280;7108;42.684;23.350;2022-11-25T07:41:08;95449.84;;;6.78;100.00
14067;BME280;7108;42.684;23.350;2022-11-25T07:43:35;95457.31;;;6.73;100.00
14067;BME280;7108;42.684;23.350;2022-11-25T07:46:13;95424.09;;;6.53;100.00
14067;BME280;7108;42.684;23.350;2022-11-25T07:48:39;95438.56;;;6.52;100.00
14067;BME280;7108;42.684;23.350;2022-11-25T07:51:13;95475.25;;;6.72;100.00
14067;BME280;7108;42.684;23.350;2022-11-25T07:53:38;95454.38;;;6.86;100.00
14067;BME280;7108;42.684;23.350;2022-11-25T07:56:04;95461.16;;;6.84;100.00
14067;BME280;7108;42.684;23.350;2022-11-25T07:58:29;95466.13;;;6.94;100.00
14067;BME280;7108;42.684;23.350;2022-11-25T08:00:55;95425.38;;;6.68;100.00
14067;BME280;7108;42.684;23.350;2022-11-25T08:03:20;95431.03;;;6.66;100.00
14067;BME280;7108;42.684;23.350;2022-11-25T08:05:46;95450.06;;;6.94;100.00
14067;BME280;7108;42.684;23.350;2022-11-25T08:08:11;95428.84;;;6.89;100.00
14067;BME280;7108;42.684;23.350;2022-11-25T08:10:41;95398.13;;;6.86;100.00
14067;BME280;7108;42.684;23.350;2022-11-25T08:13:06;95446.63;;;7.05;100.00
14067;BME280;7108;42.684;23.350;2022-11-25T08:15:32;95470.38;;;7.27;100.00
14067;BME280;7108;42.684;23.350;2022-11-25T08:17:57;95372.63;;;6.68;100.00
14067;BME280;7108;42.684;23.350;2022-11-25T08:20:23;95461.66;;;7.30;100.00
14067;BME280;7108;42.684;23.350;2022-11-25T08:22:48;95482.88;;;7.35;100.00
14067;BME280;7108;42.684;23.350;2022-11-25T08:25:14;95452.25;;;7.12;100.00
14067;BME280;7108;42.684;23.350;2022-11-25T08:27:39;95462.53;;;7.22;100.00
14067;BME280;7108;42.684;23.350;2022-11-25T08:30:06;95485.56;;;7.35;100.00
14067;BME280;7108;42.684;23.350;2022-11-25T08:32:38;95473.59;;;7.20;100.00
14067;BME280;7108;42.684;23.350;2022-11-25T08:35:04;95459.81;;;7.10;100.00
14067;BME280;7108;42.684;23.350;2022-11-25T08:37:30;95432.53;;;6.96;100.00
14067;BME280;7108;42.684;23.350;2022-11-25T08:39:56;95458.09;;;7.26;100.00
14067;BME280;7108;42.684;23.350;2022-11-25T08:42:22;95468.59;;;7.31;100.00
14067;BME280;7108;42.684;23.350;2022-11-25T08:44:54;95481.75;;;7.56;100.00
14067;BME280;7108;42.684;23.350;2022-11-25T08:47:21;95478.84;;;7.61;100.00
14067;BME280;7108;42.684;23.350;2022-11-25T08:49:52;95439.38;;;7.38;100.00
14067;BME280;7108;42.684;23.350;2022-11-25T08:52:19;95455.88;;;7.40;100.00
14067;BME280;7108;42.684;23.350;2022-11-25T08:54:44;95471.00;;;7.56;100.00
14067;BME280;7108;42.684;23.350;2022-11-25T08:57:10;95493.41;;;7.72;100.00
14067;BME280;7108;42.684;23.350;2022-11-25T08:59:36;95464.94;;;7.47;100.00
14067;BME280;7108;42.684;23.350;2022-11-25T09:02:02;95457.69;;;7.48;100.00
14067;BME280;7108;42.684;23.350;2022-11-25T09:04:27;95460.19;;;7.65;100.00
14067;BME280;7108;42.684;23.350;2022-11-25T09:06:53;95428.97;;;7.48;100.00
14067;BME280;7108;42.684;23.350;2022-11-25T09:09:19;95475.06;;;7.74;100.00
14067;BME280;7108;42.684;23.350;2022-11-25T09:11:44;95442.28;;;7.57;100.00
14067;BME280;7108;42.684;23.350;2022-11-25T09:14:10;95482.75;;;7.76;100.00
14067;BME280;7108;42.684;23.350;2022-11-25T09:16:35;95483.22;;;7.78;100.00
14067;BME280;7108;42.684;23.350;2022-11-25T09:19:00;95494.25;;;7.64;100.00
14067;BME280;7108;42.684;23.350;2022-11-25T09:21:26;95492.75;;;7.87;100.00
14067;BME280;7108;42.684;23.350;2022-11-25T09:23:52;95493.19;;;7.89;100.00
14067;BME280;7108;42.684;23.350;2022-11-25T09:26:27;95453.13;;;7.60;100.00
14067;BME280;7108;42.684;23.350;2022-11-25T09:28:53;95454.63;;;7.70;100.00
14067;BME280;7108;42.684;23.350;2022-11-25T09:31:20;95478.63;;;7.78;100.00
14067;BME280;7108;42.684;23.350;2022-11-25T09:33:46;95450.81;;;7.59;100.00
14067;BME280;7108;42.684;23.350;2022-11-25T09:36:13;95494.41;;;7.91;100.00
14067;BME280;7108;42.684;23.350;2022-11-25T09:38:39;95496.88;;;7.96;100.00
14067;BME280;7108;42.684;23.350;2022-11-25T09:52:00;95490.88;;;8.35;100.00
14067;BME280;7108;42.684;23.350;2022-11-25T09:57:17;95488.31;;;8.39;100.00
14067;BME280;7108;42.684;23.350;2022-11-25T10:00:05;95479.56;;;8.06;100.00
14067;BME280;7108;42.684;23.350;2022-11-25T10:05:12;95496.81;;;8.29;100.00
14067;BME280;7108;42.684;23.350;2022-11-25T10:07:43;95479.47;;;8.14;100.00
14067;BME280;7108;42.684;23.350;2022-11-25T10:10:55;95480.56;;;8.13;100.00
14067;BME280;7108;42.684;23.350;2022-11-25T10:13:31;95475.41;;;7.84;100.00
14067;BME280;7108;42.684;23.350;2022-11-25T10:16:00;95444.31;;;7.72;100.00
14067;BME280;7108;42.684;23.350;2022-11-25T10:18:33;95498.47;;;8.09;100.00
14067;BME280;7108;42.684;23.350;2022-11-25T10:21:03;95460.22;;;7.88;100.00
14067;BME280;7108;42.684;23.350;2022-11-25T10:23:34;95477.44;;;7.99;100.00
14067;BME280;7108;42.684;23.350;2022-11-25T10:26:09;95485.63;;;8.15;100.00
14067;BME280;7108;42.684;23.350;2022-11-25T10:28:37;95477.03;;;8.21;100.00
14067;BME280;7108;42.684;23.350;2022-11-25T10:31:18;95487.84;;;8.25;100.00
14067;BME280;7108;42.684;23.350;2022-11-25T10:33:48;95437.53;;;7.86;100.00
14067;BME280;7108;42.684;23.350;2022-11-25T10:36:33;95483.94;;;8.34;100.00
14067;BME280;7108;42.684;23.350;2022-11-25T10:39:04;95485.50;;;8.23;100.00
14067;BME280;7108;42.684;23.350;2022-11-25T10:41:36;95477.56;;;8.15;100.00
14067;BME280;7108;42.684;23.350;2022-11-25T10:44:14;95474.06;;;8.02;100.00
14067;BME280;7108;42.684;23.350;2022-11-25T10:47:35;95507.38;;;8.01;100.00
14067;BME280;7108;42.684;23.350;2022-11-25T10:55:21;95490.09;;;8.23;100.00
14067;BME280;7108;42.684;23.350;2022-11-25T10:57:51;95499.63;;;8.20;100.00
14067;BME280;7108;42.684;23.350;2022-11-25T11:02:55;95473.63;;;8.00;100.00
14067;BME280;7108;42.684;23.350;2022-11-25T11:05:31;95459.44;;;8.00;100.00
14067;BME280;7108;42.684;23.350;2022-11-25T11:10:38;95473.19;;;8.22;100.00
14067;BME280;7108;42.684;23.350;2022-11-25T11:18:48;95485.97;;;8.25;100.00
14067;BME280;7108;42.684;23.350;2022-11-25T11:21:30;95483.63;;;8.24;100.00
14067;BME280;7108;42.684;23.350;2022-11-25T11:23:57;95508.09;;;8.46;100.00
14067;BME280;7108;42.684;23.350;2022-11-25T11:29:10;95493.22;;;8.25;100.00
14067;BME280;7108;42.684;23.350;2022-11-25T11:31:42;95507.56;;;8.29;100.00
14067;BME280;7108;42.684;23.350;2022-11-25T11:37:02;95485.78;;;7.74;100.00
14067;BME280;7108;42.684;23.350;2022-11-25T11:42:35;95513.19;;;7.80;100.00
14067;BME280;7108;42.684;23.350;2022-11-25T11:48:25;95513.78;;;7.97;100.00
14067;BME280;7108;42.684;23.350;2022-11-25T11:54:23;95515.78;;;8.00;100.00
14067;BME280;7108;42.684;23.350;2022-11-25T11:59:48;95508.09;;;8.10;100.00
14067;BME280;7108;42.684;23.350;2022-11-25T12:05:18;95509.50;;;7.96;100.00
14067;BME280;7108;42.684;23.350;2022-11-25T12:10:18;95514.53;;;7.97;100.00
14067;BME280;7108;42.684;23.350;2022-11-25T12:12:54;95497.56;;;8.05;100.00
14067;BME280;7108;42.684;23.350;2022-11-25T12:18:31;95518.56;;;7.91;100.00
14067;BME280;7108;42.684;23.350;2022-11-25T12:21:00;95521.69;;;7.93;100.00
14067;BME280;7108;42.684;23.350;2022-11-25T12:26:06;95503.47;;;7.87;100.00
14067;BME280;7108;42.684;23.350;2022-11-25T12:28:39;95503.47;;;7.87;100.00
14067;BME280;7108;42.684;23.350;2022-11-25T12:31:16;95517.00;;;8.02;100.00
14067;BME280;7108;42.684;23.350;2022-11-25T12:33:56;95489.84;;;7.92;100.00
14067;BME280;7108;42.684;23.350;2022-11-25T12:44:17;95515.16;;;8.39;100.00
14067;BME280;7108;42.684;23.350;2022-11-25T12:46:47;95519.50;;;8.43;100.00
14067;BME280;7108;42.684;23.350;2022-11-25T13:00:02;95514.69;;;8.13;100.00
14067;BME280;7108;42.684;23.350;2022-11-25T13:16:47;95500.50;;;8.24;100.00
14067;BME280;7108;42.684;23.350;2022-11-25T13:19:17;95490.28;;;8.06;100.00
14067;BME280;7108;42.684;23.350;2022-11-25T13:22:03;95493.75;;;7.94;100.00
14067;BME280;7108;42.684;23.350;2022-11-25T13:24:38;95497.00;;;8.00;100.00
14067;BME280;7108;42.684;23.350;2022-11-25T13:27:07;95500.91;;;8.02;100.00
14067;BME280;7108;42.684;23.350;2022-11-25T13:29:52;95509.06;;;8.06;100.00
14067;BME280;7108;42.684;23.350;2022-11-25T13:32:36;95518.56;;;8.03;100.00
14067;BME280;7108;42.684;23.350;2022-11-25T13:37:47;95482.75;;;7.64;100.00
14067;BME280;7108;42.684;23.350;2022-11-25T13:42:46;95520.66;;;7.74;100.00
14067;BME280;7108;42.684;23.350;2022-11-25T13:45:29;95520.91;;;7.81;100.00
14067;BME280;7108;42.684;23.350;2022-11-25T13:48:05;95507.22;;;7.74;100.00
14067;BME280;7108;42.684;23.350;2022-11-25T13:50:31;95499.09;;;7.82;100.00
14067;BME280;7108;42.684;23.350;2022-11-25T13:53:20;95499.34;;;7.89;100.00
14067;BME280;7108;42.684;23.350;2022-11-25T13:55:46;95517.00;;;8.02;100.00
14067;BME280;7108;42.684;23.350;2022-11-25T13:58:24;95531.09;;;7.99;100.00
14067;BME280;7108;42.684;23.350;2022-11-25T14:01:00;95525.47;;;7.92;100.00
14067;BME280;7108;42.684;23.350;2022-11-25T14:11:48;95540.91;;;7.83;100.00
14067;BME280;7108;42.684;23.350;2022-11-25T14:14:33;95535.53;;;7.83;100.00
14067;BME280;7108;42.684;23.350;2022-11-25T14:26:19;95533.59;;;7.40;100.00
14067;BME280;7108;42.684;23.350;2022-11-25T14:28:55;95549.63;;;7.48;100.00
14067;BME280;7108;42.684;23.350;2022-11-25T14:31:35;95510.44;;;7.23;100.00
14067;BME280;7108;42.684;23.350;2022-11-25T14:34:14;95546.16;;;7.48;100.00
14067;BME280;7108;42.684;23.350;2022-11-25T14:36:48;95544.09;;;7.33;100.00
14067;BME280;7108;42.684;23.350;2022-11-25T14:39:49;95519.22;;;7.12;100.00
14067;BME280;7108;42.684;23.350;2022-11-25T14:42:20;95508.03;;;7.10;100.00
14067;BME280;7108;42.684;23.350;2022-11-25T14:44:54;95552.56;;;7.35;100.00
14067;BME280;7108;42.684;23.350;2022-11-25T14:47:27;95541.63;;;7.28;100.00
14067;BME280;7108;42.684;23.350;2022-11-25T14:49:54;95547.06;;;7.19;100.00
14067;BME280;7108;42.684;23.350;2022-11-25T14:52:34;95555.72;;;7.16;100.00
14067;BME280;7108;42.684;23.350;2022-11-25T14:55:01;95560.66;;;7.15;100.00
14067;BME280;7108;42.684;23.350;2022-11-25T14:57:33;95522.75;;;6.84;100.00
14067;BME280;7108;42.684;23.350;2022-11-25T15:00:10;95550.63;;;7.03;100.00
14067;BME280;7108;42.684;23.350;2022-11-25T15:02:40;95536.88;;;6.93;100.00
14067;BME280;7108;42.684;23.350;2022-11-25T15:05:16;95529.22;;;6.83;100.00
14067;BME280;7108;42.684;23.350;2022-11-25T15:07:43;95552.94;;;6.93;100.00
14067;BME280;7108;42.684;23.350;2022-11-25T15:10:35;95567.94;;;7.06;100.00
14067;BME280;7108;42.684;23.350;2022-11-25T15:13:10;95548.81;;;6.95;100.00
14067;BME280;7108;42.684;23.350;2022-11-25T15:15:37;95557.63;;;6.96;100.00
14067;BME280;7108;42.684;23.350;2022-11-25T15:18:06;95560.78;;;6.98;100.00
14067;BME280;7108;42.684;23.350;2022-11-25T15:20:32;95532.09;;;6.78;100.00
14067;BME280;7108;42.684;23.350;2022-11-25T15:23:00;95536.34;;;6.79;100.00